createdAt,value
2023-03-21T00:00:59.717Z,8.45
2023-03-21T00:03:28.670Z,8.49
2023-03-21T00:05:56.718Z,8.45
2023-03-21T00:08:27.982Z,8.40
2023-03-21T00:11:00.404Z,8.40
2023-03-21T00:13:32.683Z,8.37
2023-03-21T00:16:13.225Z,8.40
2023-03-21T00:18:52.404Z,8.42
2023-03-21T00:24:17.824Z,8.48
2023-03-21T00:26:46.332Z,8.45
2023-03-21T00:29:14.307Z,8.46
2023-03-21T00:31:42.253Z,8.43
2023-03-21T00:36:38.631Z,8.46
2023-03-21T00:39:07.023Z,8.44
2023-03-21T00:41:43.002Z,8.39
2023-03-21T00:44:13.703Z,8.30
2023-03-21T00:46:51.608Z,8.32
2023-03-21T00:49:25.317Z,8.31
2023-03-21T00:51:55.151Z,8.27
2023-03-21T00:54:23.334Z,8.21
2023-03-21T00:56:52.661Z,8.18
2023-03-21T00:59:21.028Z,8.27
2023-03-21T01:01:49.041Z,8.29
2023-03-21T01:04:17.214Z,8.25
2023-03-21T01:06:45.897Z,8.34
2023-03-21T01:09:17.933Z,8.32
2023-03-21T01:11:46.921Z,8.28
2023-03-21T01:14:22.928Z,8.30
2023-03-21T01:16:53.248Z,8.25
2023-03-21T01:19:35.209Z,8.21
2023-03-21T01:22:12.740Z,8.13
2023-03-21T01:24:52.503Z,8.14
2023-03-21T01:27:23.331Z,8.10
2023-03-21T01:29:52.640Z,8.10
2023-03-21T01:32:20.723Z,8.12
2023-03-21T01:34:48.600Z,8.07
2023-03-21T01:37:19.097Z,8.06
2023-03-21T01:39:47.262Z,8.07
2023-03-21T01:42:16.023Z,8.04
2023-03-21T01:44:57.926Z,8.17
2023-03-21T01:47:26.104Z,8.11
2023-03-21T01:49:58.442Z,8.13
2023-03-21T01:52:37.481Z,8.11
2023-03-21T01:55:11.736Z,8.15
2023-03-21T01:58:02.082Z,8.12
2023-03-21T02:00:36.487Z,8.08
2023-03-21T02:03:15.505Z,8.05
2023-03-21T02:05:55.830Z,8.06
2023-03-21T02:08:36.875Z,7.99
2023-03-21T02:11:09.917Z,8.02
2023-03-21T02:13:38.096Z,8.02
2023-03-21T02:16:18.278Z,8.03
2023-03-21T02:18:59.865Z,8.04
2023-03-21T02:22:15.566Z,7.93
2023-03-21T02:25:43.235Z,8.01
2023-03-21T02:28:21.278Z,7.94
2023-03-21T02:31:19.034Z,7.98
2023-03-21T02:34:32.803Z,8.02
2023-03-21T02:37:17.148Z,7.97
2023-03-21T02:40:01.710Z,7.94
2023-03-21T02:42:38.603Z,7.93
2023-03-21T02:45:16.126Z,8.01
2023-03-21T02:47:49.864Z,7.91
2023-03-21T02:50:25.661Z,7.96
2023-03-21T02:52:56.863Z,7.92
2023-03-21T02:55:28.485Z,7.96
2023-03-21T02:58:06.933Z,7.98
2023-03-21T03:00:39.811Z,7.97
2023-03-21T03:03:10.477Z,7.87
2023-03-21T03:05:49.296Z,7.88
2023-03-21T03:08:45.046Z,7.87
2023-03-21T03:11:29.465Z,7.95
2023-03-21T03:14:41.625Z,7.86
2023-03-21T03:17:20.980Z,7.81
2023-03-21T03:20:16.444Z,7.81
2023-03-21T03:22:56.101Z,7.89
2023-03-21T03:25:42.000Z,7.81
2023-03-21T03:28:14.401Z,7.75
2023-03-21T03:30:57.151Z,7.75
2023-03-21T03:33:35.392Z,7.76
2023-03-21T03:36:07.043Z,7.64
2023-03-21T03:38:39.742Z,7.73
2023-03-21T03:41:19.529Z,7.79
2023-03-21T03:43:54.876Z,7.81
2023-03-21T03:46:33.320Z,7.61
2023-03-21T03:49:09.280Z,7.54
2023-03-21T03:51:46.419Z,7.50
2023-03-21T03:54:20.297Z,7.51
2023-03-21T03:56:50.009Z,7.48
2023-03-21T03:59:19.360Z,7.57
2023-03-21T04:01:47.335Z,7.55
2023-03-21T04:04:16.966Z,7.46
2023-03-21T04:06:45.410Z,7.49
2023-03-21T04:09:21.045Z,7.59
2023-03-21T04:11:54.331Z,7.67
2023-03-21T04:14:22.205Z,7.57
2023-03-21T04:16:50.472Z,7.62
2023-03-21T04:19:18.731Z,7.61
2023-03-21T04:21:47.392Z,7.59
2023-03-21T04:24:15.542Z,7.56
2023-03-21T04:26:43.522Z,7.67
2023-03-21T04:29:12.828Z,7.66
2023-03-21T04:31:41.618Z,7.65
2023-03-21T04:34:12.592Z,7.56
2023-03-21T04:36:44.036Z,7.48
2023-03-21T04:39:13.132Z,7.50
2023-03-21T04:41:41.588Z,7.47
2023-03-21T04:44:12.748Z,7.40
2023-03-21T04:46:41.536Z,7.46
2023-03-21T04:49:09.587Z,7.44
2023-03-21T04:51:38.810Z,7.36
2023-03-21T04:56:36.392Z,7.37
2023-03-21T04:59:11.520Z,7.36
2023-03-21T05:01:43.668Z,7.38
2023-03-21T05:04:13.618Z,7.39
2023-03-21T05:06:43.938Z,7.45
2023-03-21T05:09:13.556Z,7.44
2023-03-21T05:11:42.373Z,7.53
2023-03-21T05:14:15.266Z,7.43
2023-03-21T05:16:48.666Z,7.50
2023-03-21T05:19:17.393Z,7.49
2023-03-21T05:21:45.328Z,7.47
2023-03-21T05:24:17.055Z,7.42
2023-03-21T05:26:50.202Z,7.43
2023-03-21T05:29:19.797Z,7.51
2023-03-21T05:31:49.182Z,7.48
2023-03-21T05:34:17.342Z,7.53
2023-03-21T05:36:45.240Z,7.53
2023-03-21T05:39:13.246Z,7.65
2023-03-21T05:41:41.237Z,7.85
2023-03-21T05:44:09.219Z,7.99
2023-03-21T05:46:37.244Z,7.94
2023-03-21T05:49:06.565Z,7.95
2023-03-21T05:51:34.517Z,7.92
2023-03-21T05:54:02.406Z,7.91
2023-03-21T05:56:30.349Z,7.82
2023-03-21T05:58:58.316Z,7.82
2023-03-21T06:01:26.398Z,7.81
2023-03-21T06:03:54.352Z,7.86
2023-03-21T06:06:23.714Z,7.82
2023-03-21T06:08:52.093Z,8.00
2023-03-21T06:11:28.210Z,8.01
2023-03-21T06:13:56.135Z,7.90
2023-03-21T06:16:24.363Z,7.90
2023-03-21T06:18:52.285Z,7.87
2023-03-21T06:21:20.626Z,7.88
2023-03-21T06:23:51.653Z,7.91
2023-03-21T06:26:22.887Z,7.91
2023-03-21T06:28:50.843Z,7.87
2023-03-21T06:31:18.952Z,7.85
2023-03-21T06:33:57.399Z,7.76
2023-03-21T06:36:25.281Z,7.73
2023-03-21T06:38:54.629Z,7.82
2023-03-21T06:41:22.598Z,7.78
2023-03-21T06:43:50.561Z,7.92
2023-03-21T06:46:18.472Z,7.94
2023-03-21T06:48:46.382Z,7.77
2023-03-21T06:51:16.535Z,7.68
2023-03-21T06:53:44.574Z,7.69
2023-03-21T06:56:16.319Z,7.82
2023-03-21T06:58:44.560Z,7.82
2023-03-21T07:01:14.550Z,7.90
2023-03-21T07:03:42.676Z,7.96
2023-03-21T07:06:13.470Z,8.02
2023-03-21T07:08:42.706Z,8.06
2023-03-21T07:11:11.166Z,8.19
2023-03-21T07:13:40.542Z,8.15
2023-03-21T07:16:10.431Z,8.15
2023-03-21T07:18:38.544Z,8.13
2023-03-21T07:21:07.013Z,8.12
2023-03-21T07:23:35.245Z,8.17
2023-03-21T07:26:03.358Z,8.15
2023-03-21T07:28:31.941Z,8.22
2023-03-21T07:31:05.501Z,8.21
2023-03-21T07:33:35.005Z,8.19
2023-03-21T07:36:03.759Z,8.20
2023-03-21T07:38:31.897Z,8.18
2023-03-21T07:41:01.426Z,8.28
2023-03-21T07:43:29.369Z,8.28
2023-03-21T07:46:01.933Z,8.49
2023-03-21T07:48:30.752Z,8.33
2023-03-21T07:50:59.020Z,8.51
2023-03-21T07:53:28.125Z,8.52
2023-03-21T07:55:57.116Z,8.53
2023-03-21T07:58:25.811Z,8.53
2023-03-21T08:01:04.436Z,8.60
2023-03-21T08:03:33.798Z,8.67
2023-03-21T08:06:02.116Z,8.68
2023-03-21T08:08:30.293Z,8.56
2023-03-21T08:10:58.739Z,8.70
2023-03-21T08:13:27.678Z,8.69
2023-03-21T08:15:55.737Z,8.70
2023-03-21T08:18:25.413Z,8.85
2023-03-21T08:20:54.156Z,8.75
2023-03-21T08:23:23.596Z,8.79
2023-03-21T08:25:54.017Z,8.83
2023-03-21T08:28:22.911Z,8.79
2023-03-21T08:30:51.793Z,8.91
2023-03-21T08:33:20.016Z,8.85
2023-03-21T08:35:49.782Z,8.94
2023-03-21T08:38:18.009Z,8.81
2023-03-21T08:40:46.091Z,8.94
2023-03-21T08:43:15.276Z,8.96
2023-03-21T08:45:45.205Z,9.04
2023-03-21T08:48:13.292Z,9.08
2023-03-21T08:50:41.414Z,9.06
2023-03-21T08:53:10.705Z,9.23
2023-03-21T08:55:39.073Z,9.23
2023-03-21T08:58:07.721Z,9.31
2023-03-21T09:00:35.802Z,9.38
2023-03-21T09:03:05.216Z,9.22
2023-03-21T09:05:33.667Z,9.18
2023-03-21T09:08:03.397Z,9.33
2023-03-21T09:10:32.686Z,9.40
2023-03-21T09:13:00.750Z,9.54
2023-03-21T09:15:29.814Z,9.69
2023-03-21T09:18:13.070Z,9.65
2023-03-21T09:20:43.037Z,9.95
2023-03-21T09:23:12.147Z,10.08
2023-03-21T09:25:42.352Z,10.00
2023-03-21T09:28:10.656Z,10.16
2023-03-21T09:30:38.921Z,10.09
2023-03-21T09:33:13.256Z,10.12
2023-03-21T09:35:42.828Z,10.34
2023-03-21T09:38:11.927Z,10.19
2023-03-21T09:41:05.836Z,10.24
2023-03-21T09:44:02.140Z,10.29
2023-03-21T09:46:46.271Z,10.12
2023-03-21T09:49:26.199Z,10.27
2023-03-21T09:52:06.087Z,10.25
2023-03-21T09:54:40.928Z,10.05
2023-03-21T09:57:37.158Z,10.14
2023-03-21T10:00:20.917Z,9.99
2023-03-21T10:03:07.339Z,10.05
2023-03-21T10:05:47.236Z,9.99
2023-03-21T10:08:29.763Z,10.19
2023-03-21T10:11:12.558Z,10.24
2023-03-21T10:13:56.443Z,10.34
2023-03-21T10:16:40.650Z,10.55
2023-03-21T10:19:16.816Z,10.70
2023-03-21T10:22:02.765Z,10.98
2023-03-21T10:24:35.688Z,11.15
2023-03-21T10:27:05.788Z,11.26
2023-03-21T10:29:44.430Z,11.45
2023-03-21T10:32:16.163Z,11.56
2023-03-21T10:34:49.096Z,11.50
2023-03-21T10:37:17.737Z,11.55
2023-03-21T10:39:49.459Z,11.36
2023-03-21T10:42:23.835Z,11.27
2023-03-21T10:44:56.421Z,11.28
2023-03-21T10:47:28.472Z,10.95
2023-03-21T10:50:07.149Z,11.36
2023-03-21T10:52:38.387Z,11.19
2023-03-21T10:55:17.785Z,11.54
2023-03-21T10:57:47.819Z,11.54
2023-03-21T11:00:23.876Z,11.45
2023-03-21T11:02:54.998Z,11.47
2023-03-21T11:05:27.798Z,11.53
2023-03-21T11:08:03.916Z,11.53
2023-03-21T11:10:35.502Z,11.09
2023-03-21T11:13:08.671Z,11.01
2023-03-21T11:15:55.539Z,11.08
2023-03-21T11:18:25.654Z,11.09
2023-03-21T11:20:57.877Z,11.26
2023-03-21T11:23:31.521Z,11.36
2023-03-21T11:26:03.694Z,11.39
2023-03-21T11:28:38.858Z,11.33
2023-03-21T11:31:10.316Z,11.27
2023-03-21T11:33:44.392Z,11.35
2023-03-21T11:36:38.831Z,11.45
2023-03-21T11:39:29.201Z,11.44
2023-03-21T11:41:57.725Z,11.67
2023-03-21T11:44:31.854Z,11.86
2023-03-21T11:47:03.339Z,11.82
2023-03-21T11:49:32.450Z,12.00
2023-03-21T11:52:19.963Z,12.15
2023-03-21T11:55:33.017Z,12.09
2023-03-21T11:58:24.184Z,12.42
2023-03-21T12:01:03.260Z,12.42
2023-03-21T12:03:56.571Z,12.43
2023-03-21T12:06:36.071Z,12.27
2023-03-21T12:09:18.665Z,12.23
2023-03-21T12:12:18.717Z,12.12
2023-03-21T12:15:02.411Z,12.26
2023-03-21T12:17:46.408Z,12.35
2023-03-21T12:20:43.058Z,12.41
2023-03-21T12:23:47.950Z,12.50
2023-03-21T12:26:27.033Z,12.58
2023-03-21T12:29:41.938Z,12.64
2023-03-21T12:32:28.931Z,12.77
2023-03-21T12:35:30.442Z,12.86
2023-03-21T12:38:17.309Z,13.16
2023-03-21T12:41:17.250Z,13.08
2023-03-21T12:43:50.556Z,13.42
2023-03-21T12:46:25.438Z,13.47
2023-03-21T12:48:59.539Z,13.56
2023-03-21T12:51:33.998Z,13.65
2023-03-21T12:54:19.045Z,13.85
2023-03-21T12:56:55.519Z,13.59
2023-03-21T12:59:34.454Z,13.63
2023-03-21T13:02:21.378Z,13.66
2023-03-21T13:05:01.468Z,13.55
2023-03-21T13:07:36.001Z,13.44
2023-03-21T13:10:16.219Z,13.28
2023-03-21T13:12:59.822Z,13.40
2023-03-21T13:15:52.730Z,13.20
2023-03-21T13:19:06.569Z,13.10
2023-03-21T13:22:01.754Z,13.00
2023-03-21T13:24:43.790Z,12.54
2023-03-21T13:27:30.057Z,12.44
2023-03-21T13:30:06.867Z,12.40
2023-03-21T13:32:39.102Z,12.25
2023-03-21T13:35:17.806Z,12.19
2023-03-21T13:37:53.759Z,12.16
2023-03-21T13:40:26.071Z,12.17
2023-03-21T13:43:01.319Z,12.20
2023-03-21T13:45:34.712Z,12.33
2023-03-21T13:48:26.310Z,12.26
2023-03-21T13:51:02.970Z,12.25
2023-03-21T13:53:37.376Z,12.36
2023-03-21T13:56:26.395Z,12.28
2023-03-21T13:59:01.354Z,12.19
2023-03-21T14:01:36.372Z,11.91
2023-03-21T14:04:13.912Z,12.03
2023-03-21T14:06:59.810Z,11.98
2023-03-21T14:09:37.254Z,11.85
2023-03-21T14:12:12.417Z,11.92
2023-03-21T14:14:47.208Z,12.04
2023-03-21T14:17:16.789Z,12.05
2023-03-21T14:19:44.759Z,12.06
2023-03-21T14:22:15.637Z,12.07
2023-03-21T14:24:48.844Z,12.12
2023-03-21T14:27:16.877Z,12.32
2023-03-21T14:29:48.782Z,12.36
2023-03-21T14:32:24.409Z,12.46
2023-03-21T14:34:52.585Z,12.48
2023-03-21T14:37:30.059Z,12.49
2023-03-21T14:40:00.772Z,12.43
2023-03-21T14:42:34.670Z,12.45
2023-03-21T14:45:20.271Z,12.47
2023-03-21T14:48:01.169Z,12.36
2023-03-21T14:50:39.695Z,12.32
2023-03-21T14:53:08.679Z,12.25
2023-03-21T14:55:45.350Z,12.27
2023-03-21T14:58:17.525Z,12.23
2023-03-21T15:00:50.756Z,12.10
2023-03-21T15:03:23.498Z,12.07
2023-03-21T15:05:51.886Z,12.15
2023-03-21T15:08:22.942Z,12.39
2023-03-21T15:11:07.867Z,12.64
2023-03-21T15:13:49.975Z,12.53
2023-03-21T15:16:20.810Z,12.09
2023-03-21T15:18:51.036Z,11.96
2023-03-21T15:21:27.711Z,11.92
2023-03-21T15:24:02.083Z,11.97
2023-03-21T15:26:33.102Z,11.98
2023-03-21T15:29:02.295Z,12.13
2023-03-21T15:31:37.522Z,12.47
2023-03-21T15:34:08.818Z,12.48
2023-03-21T15:36:44.070Z,12.56
2023-03-21T15:39:18.095Z,12.59
2023-03-21T15:42:02.842Z,12.49
2023-03-21T15:44:31.650Z,12.51
2023-03-21T15:47:01.927Z,12.38
2023-03-21T15:49:33.862Z,12.35
2023-03-21T15:52:14.084Z,12.22
2023-03-21T15:54:48.004Z,12.15
2023-03-21T15:57:24.276Z,12.17
2023-03-21T15:59:57.681Z,12.24
2023-03-21T16:02:31.871Z,12.20
2023-03-21T16:05:02.340Z,12.19
2023-03-21T16:07:30.474Z,12.18
2023-03-21T16:10:04.573Z,12.12
2023-03-21T16:12:35.772Z,12.15
2023-03-21T16:15:08.079Z,12.12
2023-03-21T16:17:38.125Z,12.11
2023-03-21T16:20:20.398Z,12.09
2023-03-21T16:27:42.012Z,12.10
2023-03-21T16:30:38.971Z,12.14
2023-03-21T16:33:47.017Z,12.17
2023-03-21T16:36:18.682Z,12.14
2023-03-21T16:38:47.487Z,12.15
2023-03-21T16:41:16.722Z,12.21
2023-03-21T16:43:45.913Z,12.15
2023-03-21T16:46:15.612Z,12.09
2023-03-21T16:48:46.644Z,12.07
2023-03-21T16:51:16.101Z,12.09
2023-03-21T16:53:44.404Z,12.10
2023-03-21T16:56:18.336Z,12.04
2023-03-21T16:58:46.537Z,12.17
2023-03-21T17:01:19.322Z,12.32
2023-03-21T17:03:49.670Z,12.29
2023-03-21T17:06:24.859Z,12.22
2023-03-21T17:08:56.252Z,12.19
2023-03-21T17:11:31.990Z,12.06
2023-03-21T17:14:06.122Z,11.95
2023-03-21T17:16:37.393Z,11.97
2023-03-21T17:19:16.473Z,11.97
2023-03-21T17:21:47.790Z,11.90
2023-03-21T17:24:23.562Z,11.90
2023-03-21T17:26:52.708Z,11.89
2023-03-21T17:29:23.807Z,11.95
2023-03-21T17:31:51.918Z,12.22
2023-03-21T17:34:21.179Z,12.18
2023-03-21T17:38:07.356Z,12.09
2023-03-21T17:40:37.860Z,12.30
2023-03-21T17:43:14.738Z,12.25
2023-03-21T17:45:43.837Z,12.08
2023-03-21T17:48:16.224Z,12.01
2023-03-21T17:50:46.544Z,12.08
2023-03-21T17:53:14.865Z,12.05
2023-03-21T17:55:42.817Z,12.15
2023-03-21T17:58:12.032Z,12.01
2023-03-21T18:00:41.250Z,11.98
2023-03-21T18:03:12.178Z,11.99
2023-03-21T18:05:43.288Z,11.96
2023-03-21T18:08:16.461Z,11.90
2023-03-21T18:10:47.156Z,11.87
2023-03-21T18:13:15.276Z,11.98
2023-03-21T18:15:44.621Z,12.00
2023-03-21T18:18:14.115Z,11.87
2023-03-21T18:20:51.702Z,11.87
2023-03-21T18:23:22.863Z,12.00
2023-03-21T18:25:52.477Z,12.05
2023-03-21T18:28:21.376Z,12.08
2023-03-21T18:31:14.353Z,12.20
2023-03-21T18:33:45.110Z,12.24
2023-03-21T18:36:24.499Z,12.14
2023-03-21T18:38:56.839Z,12.34
2023-03-21T18:41:24.868Z,12.57
2023-03-21T18:44:02.212Z,12.29
2023-03-21T18:46:38.021Z,12.10
2023-03-21T18:49:52.088Z,12.37
2023-03-21T18:51:58.679Z,12.47
2023-03-21T18:54:28.165Z,12.57
2023-03-21T18:59:44.501Z,12.39
2023-03-21T19:02:16.882Z,12.18
2023-03-21T19:04:45.531Z,12.17
2023-03-21T19:07:13.529Z,12.05
2023-03-21T19:10:05.289Z,12.02
2023-03-21T19:12:34.230Z,11.90
2023-03-21T19:15:04.023Z,11.92
2023-03-21T19:20:26.737Z,11.84
2023-03-21T19:22:57.812Z,11.70
2023-03-21T19:25:30.387Z,11.54
2023-03-21T19:27:59.836Z,11.49
2023-03-21T19:30:29.478Z,11.31
2023-03-21T19:32:59.371Z,11.27
2023-03-21T19:35:29.260Z,11.22
2023-03-21T19:37:57.872Z,11.24
2023-03-21T19:40:28.643Z,11.10
2023-03-21T19:43:10.376Z,11.06
2023-03-21T19:45:50.287Z,11.00
2023-03-21T19:48:19.204Z,11.08
2023-03-21T19:51:20.120Z,11.02
2023-03-21T19:53:40.349Z,10.95
2023-03-21T19:56:21.829Z,10.88
2023-03-21T19:58:51.988Z,10.95
2023-03-21T20:01:20.219Z,10.84
2023-03-21T20:03:48.618Z,10.76
2023-03-21T20:06:22.748Z,10.82
2023-03-21T20:09:41.287Z,10.75
2023-03-21T20:11:42.342Z,10.70
2023-03-21T20:14:10.768Z,10.45
2023-03-21T20:16:43.796Z,10.41
2023-03-21T20:19:16.830Z,10.33
2023-03-21T20:21:52.161Z,10.57
2023-03-21T20:24:23.408Z,10.37
2023-03-21T20:26:54.993Z,10.48
2023-03-21T20:32:13.668Z,10.42
2023-03-21T20:34:44.784Z,10.37
2023-03-21T20:37:14.849Z,10.34
2023-03-21T20:39:44.604Z,10.25
2023-03-21T20:42:16.047Z,10.16
2023-03-21T20:44:57.868Z,10.21
2023-03-21T20:47:29.449Z,10.14
2023-03-21T20:49:59.098Z,10.14
2023-03-21T20:55:22.356Z,10.18
2023-03-21T20:57:55.157Z,10.40
2023-03-21T21:00:25.297Z,10.23
2023-03-21T21:02:55.341Z,10.18
2023-03-21T21:05:32.167Z,10.30
2023-03-21T21:08:04.385Z,10.25
2023-03-21T21:10:35.073Z,10.12
2023-03-21T21:13:07.724Z,10.10
2023-03-21T21:15:38.120Z,10.12
2023-03-21T21:18:10.323Z,10.35
2023-03-21T21:20:42.391Z,10.28
2023-03-21T21:23:13.744Z,10.35
2023-03-21T21:25:41.830Z,10.60
2023-03-21T21:28:11.771Z,10.42
2023-03-21T21:30:41.946Z,10.32
2023-03-21T21:33:15.373Z,10.21
2023-03-21T21:35:47.709Z,10.15
2023-03-21T21:38:17.577Z,10.19
2023-03-21T21:40:46.076Z,10.48
2023-03-21T21:43:19.600Z,10.47
2023-03-21T21:45:51.369Z,10.69
2023-03-21T21:48:19.701Z,10.86
2023-03-21T21:50:54.708Z,10.68
2023-03-21T21:53:23.350Z,10.36
2023-03-21T21:55:52.073Z,10.20
2023-03-21T21:58:21.491Z,10.14
2023-03-21T22:00:51.152Z,10.12
2023-03-21T22:03:21.982Z,10.09
2023-03-21T22:05:50.483Z,9.98
2023-03-21T22:08:18.999Z,9.98
2023-03-21T22:10:48.032Z,9.98
2023-03-21T22:13:16.060Z,9.96
2023-03-21T22:15:47.537Z,10.05
2023-03-21T22:18:15.662Z,9.99
2023-03-21T22:20:43.621Z,9.96
2023-03-21T22:23:11.698Z,9.92
2023-03-21T22:25:43.863Z,9.87
2023-03-21T22:28:13.992Z,9.85
2023-03-21T22:30:46.600Z,9.86
2023-03-21T22:33:16.101Z,9.87
2023-03-21T22:35:45.483Z,9.89
2023-03-21T22:38:24.260Z,9.81
2023-03-21T22:40:58.408Z,9.83
2023-03-21T22:43:29.988Z,9.86
2023-03-21T22:45:59.401Z,9.84
2023-03-21T22:48:30.262Z,9.85
2023-03-21T22:50:59.014Z,9.88
2023-03-21T22:53:27.260Z,9.90
2023-03-21T22:55:57.502Z,9.89
2023-03-21T22:58:25.496Z,9.85
2023-03-21T23:00:53.571Z,9.84
2023-03-21T23:03:22.918Z,9.81
2023-03-21T23:05:55.141Z,9.83
2023-03-21T23:08:24.827Z,9.78
2023-03-21T23:10:52.747Z,9.85
2023-03-21T23:13:43.229Z,9.78
2023-03-21T23:16:11.494Z,9.77
2023-03-21T23:18:41.489Z,9.79
2023-03-21T23:21:13.034Z,9.83
2023-03-21T23:23:43.861Z,9.84
2023-03-21T23:26:15.523Z,9.82
2023-03-21T23:28:44.896Z,9.82
2023-03-21T23:31:16.848Z,9.83
2023-03-21T23:33:49.875Z,9.85
2023-03-21T23:36:21.580Z,9.84
2023-03-21T23:38:50.986Z,9.81
2023-03-21T23:41:24.042Z,9.78
2023-03-21T23:43:55.337Z,9.77
2023-03-21T23:46:26.757Z,9.73
2023-03-21T23:48:57.403Z,9.65
2023-03-21T23:51:31.416Z,9.63
2023-03-21T23:54:00.581Z,9.57
2023-03-21T23:56:30.197Z,9.54
2023-03-21T23:59:00.182Z,9.51
